^^
Paulen-Weather Station Historical Data
Daily Summary for July 02, 2022 Units:  English    Metric   Both
Daily Weekly Monthly Yearly Custom
  High: Low: Average:
Temperature: 60.8 °F 59 °F 59.2 °F
Dew Point: 57.2 °F 55.4 °F 57 °F
Humidity: 94% 86% 92%
Wind Speed: 9.9mph 1.2mph 4.7mph
Wind Gust: 8.7mph - -
Wind- - WSW
Pressure: 30 in 29.9 in -
Precipitation: 0 in    
Historical Graphs
 
 
Tabular Data for July 02, 2022
Time Temperature Dew Point Pressure Wind Wind Speed Wind Gust Humidity Rainfall Rate (Hourly) solar
00:04 59 °F 57.2 °F 29.9 in W 4.3 mph 3.7 mph 92% 0 in 0 W/m2
00:09 59 °F 57.2 °F 29.9 in WSW 3.7 mph 3.1 mph 93% 0 in 0 W/m2
00:14 59 °F 57.2 °F 29.9 in W 5 mph 4.3 mph 93% 0 in 0 W/m2
00:19 59 °F 57.2 °F 29.9 in W 3.7 mph 3.1 mph 93% 0 in 0 W/m2
00:24 59 °F 57.2 °F 29.9 in W 3.7 mph 2.5 mph 93% 0 in 0 W/m2
00:29 59 °F 57.2 °F 29.9 in W 4.3 mph 3.1 mph 93% 0 in 0 W/m2
00:34 59 °F 57.2 °F 29.9 in W 3.7 mph 2.5 mph 92% 0 in 0 W/m2
00:39 59 °F 57.2 °F 29.9 in WSW 2.5 mph 1.2 mph 93% 0 in 0 W/m2
00:44 59 °F 57.2 °F 29.9 in W 3.1 mph 2.5 mph 93% 0 in 0 W/m2
00:49 59 °F 57.2 °F 29.9 in W 2.5 mph 1.2 mph 93% 0 in 0 W/m2
00:54 59 °F 57.2 °F 29.9 in WSW 1.2 mph 0.6 mph 93% 0 in 0 W/m2
00:59 59 °F 57.2 °F 30 in W 1.2 mph 1.2 mph 93% 0 in 0 W/m2
01:04 59 °F 57.2 °F 30 in WNW 1.9 mph 1.2 mph 93% 0 in 0 W/m2
01:09 59 °F 57.2 °F 30 in WNW 1.9 mph 1.2 mph 93% 0 in 0 W/m2
01:14 59 °F 57.2 °F 30 in WNW 3.1 mph 1.9 mph 93% 0 in 0 W/m2
01:19 59 °F 57.2 °F 30 in W 1.2 mph 1.9 mph 93% 0 in 0 W/m2
01:24 59 °F 57.2 °F 30 in W 1.9 mph 1.9 mph 94% 0 in 0 W/m2
01:29 59 °F 57.2 °F 30 in WNW 3.1 mph 2.5 mph 94% 0 in 0 W/m2
01:34 59 °F 57.2 °F 30 in W 2.5 mph 3.1 mph 94% 0 in 0 W/m2
01:39 59 °F 57.2 °F 30 in WNW 2.5 mph 1.9 mph 94% 0 in 0 W/m2
01:44 59 °F 57.2 °F 30 in W 2.5 mph 1.9 mph 94% 0 in 0 W/m2
01:49 59 °F 57.2 °F 30 in W 4.3 mph 2.5 mph 94% 0 in 0 W/m2
01:54 59 °F 57.2 °F 30 in WNW 3.1 mph 1.9 mph 94% 0 in 0 W/m2
01:59 59 °F 57.2 °F 30 in W 3.1 mph 2.5 mph 94% 0 in 0 W/m2
02:04 59 °F 57.2 °F 29.9 in WNW 3.7 mph 3.1 mph 94% 0 in 0 W/m2
02:09 59 °F 57.2 °F 29.9 in WNW 3.1 mph 3.1 mph 94% 0 in 0 W/m2
02:14 59 °F 57.2 °F 29.9 in WNW 5 mph 3.1 mph 94% 0 in 0 W/m2
02:19 59 °F 57.2 °F 29.9 in W 5 mph 4.3 mph 93% 0 in 0 W/m2
02:24 59 °F 57.2 °F 29.9 in WSW 5 mph 4.3 mph 93% 0 in 0 W/m2
02:29 59 °F 57.2 °F 29.9 in W 5.6 mph 4.3 mph 93% 0 in 0 W/m2
02:34 59 °F 57.2 °F 29.9 in SW 3.7 mph 4.3 mph 93% 0 in 0 W/m2
02:39 59 °F 57.2 °F 29.9 in W 5 mph 3.7 mph 93% 0 in 0 W/m2
02:44 59 °F 57.2 °F 29.9 in WSW 5.6 mph 4.3 mph 92% 0 in 0 W/m2
02:49 59 °F 57.2 °F 29.9 in WSW 4.3 mph 4.3 mph 92% 0 in 0 W/m2
02:54 59 °F 57.2 °F 29.9 in W 5.6 mph 5 mph 92% 0 in 0 W/m2
02:59 59 °F 57.2 °F 29.9 in W 5 mph 3.7 mph 92% 0 in 0 W/m2
03:04 59 °F 57.2 °F 29.9 in W 3.7 mph 2.5 mph 92% 0 in 0 W/m2
03:09 59 °F 57.2 °F 29.9 in WSW 5.6 mph 3.7 mph 92% 0 in 0 W/m2
03:14 59 °F 57.2 °F 29.9 in SSW 3.7 mph 3.1 mph 92% 0 in 0 W/m2
03:19 59 °F 57.2 °F 29.9 in WSW 4.3 mph 3.1 mph 92% 0 in 0 W/m2
03:24 59 °F 57.2 °F 29.9 in SSW 6.2 mph 5 mph 91% 0 in 0 W/m2
03:29 59 °F 57.2 °F 29.9 in SW 6.8 mph 5 mph 90% 0 in 0 W/m2
03:34 59 °F 57.2 °F 29.9 in WSW 6.2 mph 5 mph 90% 0 in 0 W/m2
03:39 59 °F 57.2 °F 29.9 in W 5 mph 3.7 mph 89% 0 in 0 W/m2
03:44 59 °F 57.2 °F 29.9 in W 5 mph 3.1 mph 90% 0 in 0 W/m2
03:49 59 °F 57.2 °F 29.9 in WSW 5.6 mph 5 mph 90% 0 in 0 W/m2
03:54 59 °F 57.2 °F 29.9 in WSW 7.5 mph 5 mph 90% 0 in 0 W/m2
03:59 59 °F 57.2 °F 29.9 in WSW 6.8 mph 5 mph 90% 0 in 0 W/m2
04:04 59 °F 57.2 °F 29.9 in WSW 6.8 mph 5 mph 90% 0 in 0 W/m2
04:09 59 °F 57.2 °F 29.9 in WSW 5 mph 3.1 mph 90% 0 in 0 W/m2
04:14 59 °F 57.2 °F 29.9 in W 5 mph 3.7 mph 90% 0 in 0 W/m2
04:19 59 °F 57.2 °F 29.9 in W 4.3 mph 3.1 mph 90% 0 in 0 W/m2
04:24 59 °F 57.2 °F 29.9 in W 4.3 mph 3.1 mph 90% 0 in 0 W/m2
04:29 59 °F 57.2 °F 29.9 in W 5.6 mph 4.3 mph 90% 0 in 0 W/m2
04:34 59 °F 57.2 °F 29.9 in WSW 5 mph 5 mph 91% 0 in 0 W/m2
04:39 59 °F 57.2 °F 29.9 in WSW 5.6 mph 5 mph 91% 0 in 0 W/m2
04:44 59 °F 57.2 °F 29.9 in WSW 4.3 mph 3.7 mph 91% 0 in 7 W/m2
04:49 59 °F 57.2 °F 29.9 in WNW 5 mph 3.1 mph 91% 0 in 7 W/m2
04:54 59 °F 57.2 °F 29.9 in W 3.7 mph 2.5 mph 91% 0 in 7 W/m2
04:59 59 °F 55.4 °F 29.9 in WSW 3.1 mph 1.9 mph 91% 0 in 9 W/m2
05:04 59 °F 55.4 °F 29.9 in WSW 4.3 mph 3.1 mph 91% 0 in 9 W/m2
05:09 59 °F 55.4 °F 29.9 in WSW 3.7 mph 3.1 mph 91% 0 in 11 W/m2
05:14 59 °F 57.2 °F 29.9 in W 3.7 mph 3.7 mph 92% 0 in 11 W/m2
05:19 59 °F 55.4 °F 29.9 in W 3.7 mph 3.1 mph 92% 0 in 14 W/m2
05:24 59 °F 55.4 °F 29.9 in W 3.7 mph 3.7 mph 92% 0 in 16 W/m2
05:29 59 °F 55.4 °F 29.9 in WSW 5 mph 3.7 mph 92% 0 in 18 W/m2
05:34 59 °F 55.4 °F 29.9 in WSW 3.7 mph 3.1 mph 92% 0 in 18 W/m2
05:39 59 °F 55.4 °F 29.9 in WSW 3.7 mph 3.7 mph 92% 0 in 16 W/m2
05:44 59 °F 55.4 °F 29.9 in WSW 3.7 mph 3.7 mph 92% 0 in 16 W/m2
05:49 59 °F 57.2 °F 29.9 in WSW 3.7 mph 3.7 mph 92% 0 in 19 W/m2
05:54 59 °F 57.2 °F 29.9 in SW 3.7 mph 2.5 mph 93% 0 in 30 W/m2
05:59 59 °F 57.2 °F 29.9 in WSW 4.3 mph 3.1 mph 93% 0 in 40 W/m2
06:04 59 °F 57.2 °F 29.9 in WSW 4.3 mph 3.7 mph 93% 0 in 44 W/m2
06:09 59 °F 57.2 °F 30 in WSW 3.1 mph 3.1 mph 93% 0 in 51 W/m2
06:14 59 °F 57.2 °F 30 in SW 3.7 mph 2.5 mph 93% 0 in 58 W/m2
06:19 59 °F 57.2 °F 30 in SW 4.3 mph 3.1 mph 92% 0 in 65 W/m2
06:24 59 °F 57.2 °F 30 in WSW 3.7 mph 2.5 mph 92% 0 in 72 W/m2
06:29 59 °F 57.2 °F 30 in WSW 2.5 mph 2.5 mph 92% 0 in 77 W/m2
06:34 59 °F 57.2 °F 30 in WSW 3.1 mph 3.1 mph 92% 0 in 116 W/m2
06:39 59 °F 57.2 °F 30 in S 2.5 mph 3.1 mph 92% 0 in 109 W/m2
06:44 59 °F 57.2 °F 30 in SW 3.1 mph 2.5 mph 92% 0 in 49 W/m2
06:49 59 °F 57.2 °F 30 in SW 6.2 mph 6.2 mph 91% 0 in 40 W/m2
06:54 59 °F 57.2 °F 30 in SW 7.5 mph 6.8 mph 91% 0 in 77 W/m2
06:59 59 °F 57.2 °F 30 in SW 8.1 mph 5.6 mph 91% 0 in 95 W/m2
07:04 59 °F 57.2 °F 30 in SSW 6.8 mph 5 mph 91% 0 in 95 W/m2
07:09 59 °F 57.2 °F 30 in SSW 5.6 mph 4.3 mph 91% 0 in 97 W/m2
07:14 59 °F 57.2 °F 30 in SW 5.6 mph 3.7 mph 90% 0 in 102 W/m2
07:19 59 °F 57.2 °F 30 in SW 7.5 mph 6.8 mph 89% 0 in 116 W/m2
07:24 59 °F 57.2 °F 30 in SW 7.5 mph 5 mph 89% 0 in 123 W/m2
07:29 60.8 °F 57.2 °F 30 in SW 7.5 mph 3.7 mph 89% 0 in 107 W/m2
07:34 60.8 °F 57.2 °F 30 in SW 5 mph 5 mph 89% 0 in 76 W/m2
07:39 60.8 °F 57.2 °F 30 in SW 8.1 mph 6.8 mph 88% 0 in 56 W/m2
07:44 60.8 °F 57.2 °F 30 in SW 8.1 mph 6.8 mph 88% 0 in 69 W/m2
07:49 60.8 °F 55.4 °F 30 in SSW 6.2 mph 6.8 mph 87% 0 in 65 W/m2
07:54 60.8 °F 55.4 °F 30 in SSW 8.7 mph 7.5 mph 87% 0 in 69 W/m2
07:59 60.8 °F 55.4 °F 30 in SSW 9.3 mph 6.2 mph 86% 0 in 69 W/m2
08:04 60.8 °F 55.4 °F 30 in SSW 9.3 mph 7.5 mph 86% 0 in 113 W/m2
08:09 60.8 °F 55.4 °F 30 in SSW 9.9 mph 8.7 mph 87% 0 in 104 W/m2
Compliments of Weather Underground - 2 mb